Time;durP1;ratioP1;P1;durP2;ratioP2;P2;SDS_P1;SDS_P2;PMS_P1;PMS_P2;Temp;Humidity;BMP_temperature;BMP_pressure;BME280_temperature;BME280_humidity;BME280_pressure;Samples;Min_cycle;Max_cycle;Signal;HPM_P1;HPM_P2
2021/07/04 00:00:56;;;;;;;12.30;7.73;;;;;;;16.31;75.17;99287.28;4895001;29;20037;-69
2021/07/04 00:03:25;;;;;;;13.23;7.70;;;;;;;16.36;75.58;99282.81;4898407;29;20100;-69
2021/07/04 00:05:55;;;;;;;11.07;7.23;;;;;;;16.36;75.29;99290.56;4897841;29;20052;-70
2021/07/04 00:08:25;;;;;;;11.85;7.50;;;;;;;16.48;75.59;99285.03;4898535;29;20291;-70
2021/07/04 00:10:58;;;;;;;11.38;7.28;;;;;;;16.49;75.00;99281.53;4896695;29;20052;-71
2021/07/04 00:13:28;;;;;;;11.45;7.28;;;;;;;16.57;75.14;99284.78;4898390;29;20144;-70
2021/07/04 00:16:00;;;;;;;13.02;7.40;;;;;;;16.61;75.06;99286.34;4898415;29;20123;-70
2021/07/04 00:18:31;;;;;;;10.88;7.20;;;;;;;16.60;74.73;99285.50;4898444;29;20088;-70
2021/07/04 00:21:04;;;;;;;11.30;7.60;;;;;;;16.59;74.51;99289.00;4898971;29;20122;-70
2021/07/04 00:23:33;;;;;;;10.32;6.70;;;;;;;16.51;74.52;99290.06;4896061;29;20136;-70
2021/07/04 00:26:03;;;;;;;9.43;6.90;;;;;;;16.66;74.71;99290.47;4898505;29;20475;-70
2021/07/04 00:28:32;;;;;;;10.55;6.35;;;;;;;16.63;74.27;99285.41;4898605;29;20044;-70
2021/07/04 00:31:04;;;;;;;9.43;6.38;;;;;;;16.64;74.74;99288.84;4898659;29;20040;-70
2021/07/04 00:33:33;;;;;;;10.95;6.20;;;;;;;16.86;73.98;99292.44;4897237;29;20052;-70
2021/07/04 00:36:05;;;;;;;8.20;5.80;;;;;;;16.97;73.28;99285.19;4895264;29;20039;-70
2021/07/04 00:38:35;;;;;;;8.60;5.80;;;;;;;16.96;73.12;99278.34;4896908;29;20037;-70
2021/07/04 00:41:05;;;;;;;9.65;6.57;;;;;;;16.98;72.71;99286.88;4898533;29;20068;-70
2021/07/04 00:43:33;;;;;;;9.27;6.07;;;;;;;17.05;72.16;99288.34;4897139;29;20044;-70
2021/07/04 00:46:04;;;;;;;9.45;6.22;;;;;;;17.03;72.21;99285.00;4898144;29;20045;-70
2021/07/04 00:48:34;;;;;;;9.55;6.35;;;;;;;17.04;72.17;99286.66;4898464;29;20132;-70
2021/07/04 00:51:05;;;;;;;9.07;6.25;;;;;;;17.05;72.16;99298.66;4897060;29;20495;-70
2021/07/04 00:53:35;;;;;;;9.45;6.38;;;;;;;16.96;71.79;99288.66;4892182;29;20972;-71
2021/07/04 00:56:05;;;;;;;9.68;6.45;;;;;;;16.72;72.05;99289.44;4898154;29;20059;-70
2021/07/04 00:58:35;;;;;;;;;;;;;;;16.50;72.79;99283.25;4899578;29;20136;-70
2021/07/04 01:01:05;;;;;;;10.40;6.28;;;;;;;16.38;73.53;99278.47;4896236;29;19924;-71
2021/07/04 01:03:34;;;;;;;;;;;;;;;16.32;73.55;99283.78;4894315;29;20037;-70
2021/07/04 01:06:05;;;;;;;9.40;6.00;;;;;;;16.36;73.60;99288.84;4900944;29;19959;-69
2021/07/04 01:08:34;;;;;;;8.82;6.18;;;;;;;16.55;73.33;99281.41;4895664;29;20052;-70
2021/07/04 01:11:04;;;;;;;11.38;6.30;;;;;;;16.62;73.07;99277.75;4900184;29;20060;-70
2021/07/04 01:13:35;;;;;;;10.63;5.88;;;;;;;16.68;72.95;99280.09;4901361;29;20104;-70
2021/07/04 01:16:13;;;;;;;9.85;6.38;;;;;;;16.56;72.82;99272.75;4900096;29;20399;-70
2021/07/04 01:18:44;;;;;;;9.63;6.53;;;;;;;16.51;73.23;99274.59;4896247;29;20045;-71
2021/07/04 01:21:25;;;;;;;9.98;6.35;;;;;;;16.63;73.28;99277.69;4901468;29;20067;-70
2021/07/04 01:23:55;;;;;;;9.32;5.90;;;;;;;16.72;73.10;99274.00;4898217;29;20060;-70
2021/07/04 01:26:25;;;;;;;10.85;6.13;;;;;;;16.59;72.64;99272.69;4900832;29;20510;-70
2021/07/04 01:28:53;;;;;;;8.93;6.20;;;;;;;16.42;73.05;99274.91;4899910;29;20132;-70
2021/07/04 01:31:24;;;;;;;7.72;5.50;;;;;;;16.35;73.54;99263.09;4901058;29;20059;-70
2021/07/04 01:34:09;;;;;;;9.70;6.45;;;;;;;16.35;73.68;99274.25;4900985;29;20076;-70
2021/07/04 01:36:41;;;;;;;8.52;5.80;;;;;;;16.47;73.93;99278.19;4896921;29;20546;-70
2021/07/04 01:39:14;;;;;;;10.70;6.07;;;;;;;16.63;73.47;99279.41;4897121;29;20048;-70
2021/07/04 01:41:48;;;;;;;8.80;6.13;;;;;;;16.69;72.87;99274.06;4899733;29;20041;-70
2021/07/04 01:44:24;;;;;;;8.68;6.25;;;;;;;16.52;72.67;99273.75;4899054;29;20055;-70
2021/07/04 01:46:53;;;;;;;;;;;;;;;16.54;73.02;99279.69;4899740;29;20044;-70
2021/07/04 01:49:27;;;;;;;8.93;5.90;;;;;;;16.62;73.16;99277.75;4895263;29;19962;-70
2021/07/04 01:51:58;;;;;;;9.52;6.00;;;;;;;16.66;73.08;99274.16;4888564;29;20499;-71
2021/07/04 01:54:34;;;;;;;9.20;6.00;;;;;;;16.56;73.13;99277.91;4888728;29;20056;-71
2021/07/04 01:57:11;;;;;;;10.48;6.28;;;;;;;16.48;73.17;99274.72;4893118;29;20045;-70
2021/07/04 01:59:55;;;;;;;9.80;6.70;;;;;;;16.40;73.96;99274.09;4899811;29;20104;-70
2021/07/04 02:02:46;;;;;;;9.20;6.20;;;;;;;16.31;74.02;99277.81;4900418;29;20495;-70
2021/07/04 02:05:23;;;;;;;11.30;5.80;;;;;;;16.12;74.49;99270.69;4896952;29;20127;-70
2021/07/04 02:07:54;;;;;;;11.32;6.45;;;;;;;16.14;74.73;99280.06;4898031;29;20075;-70
2021/07/04 02:10:27;;;;;;;8.32;5.50;;;;;;;16.33;74.90;99275.19;4890215;29;20053;-70
2021/07/04 02:12:59;;;;;;;9.50;5.63;;;;;;;16.49;74.39;99276.41;4880768;29;20065;-70
2021/07/04 02:15:32;;;;;;;10.60;5.97;;;;;;;16.50;74.01;99278.09;4898280;29;20063;-70
2021/07/04 02:18:11;;;;;;;8.82;5.93;;;;;;;16.52;74.21;99286.66;4897589;29;20044;-71
2021/07/04 02:20:53;;;;;;;10.63;6.05;;;;;;;16.46;73.81;99289.38;4897758;29;20045;-70
2021/07/04 02:23:30;;;;;;;10.15;6.20;;;;;;;16.44;74.36;99293.72;4880235;29;20057;-70
2021/07/04 02:26:10;;;;;;;8.00;5.97;;;;;;;16.34;74.19;99298.31;4889865;29;20063;-71
2021/07/04 02:28:43;;;;;;;9.85;6.45;;;;;;;16.20;74.74;99309.91;4898741;29;20049;-70
2021/07/04 02:31:26;;;;;;;9.68;6.05;;;;;;;16.00;75.07;99308.75;4897965;29;20045;-70
2021/07/04 02:33:57;;;;;;;9.55;6.05;;;;;;;16.05;75.31;99306.06;4897396;29;20101;-70
2021/07/04 02:36:31;;;;;;;9.40;6.03;;;;;;;16.01;75.18;99305.31;4895970;29;20463;-70
2021/07/04 02:39:09;;;;;;;9.27;5.78;;;;;;;15.79;75.29;99306.78;4892669;29;20049;-71
2021/07/04 02:41:42;;;;;;;11.52;5.75;;;;;;;15.73;75.98;99299.25;4898850;29;20443;-70
2021/07/04 02:44:14;;;;;;;10.45;6.10;;;;;;;15.77;76.19;99293.13;4897840;29;20499;-70
2021/07/04 02:46:45;;;;;;;10.82;6.35;;;;;;;16.06;76.18;99287.16;4897629;29;20048;-70
2021/07/04 02:49:15;;;;;;;9.05;6.38;;;;;;;16.27;75.50;99290.84;4896397;29;20107;-70
2021/07/04 02:51:48;;;;;;;8.98;6.32;;;;;;;16.19;75.08;99288.50;4896711;29;20040;-70
2021/07/04 02:54:18;;;;;;;;;;;;;;;16.15;75.15;99288.63;4894378;29;20053;-70
2021/07/04 02:57:05;;;;;;;9.55;6.07;;;;;;;16.16;75.54;99287.72;4896954;29;19935;-70
2021/07/04 02:59:37;;;;;;;9.57;6.28;;;;;;;16.28;75.10;99287.34;4899410;29;20135;-70
2021/07/04 03:02:08;;;;;;;9.13;6.15;;;;;;;16.29;74.58;99289.06;4897838;29;20037;-70
2021/07/04 03:04:40;;;;;;;8.07;5.88;;;;;;;16.44;74.62;99288.56;4886522;29;20045;-70
2021/07/04 03:07:09;;;;;;;9.25;5.85;;;;;;;16.43;73.91;99286.91;4897168;29;20044;-70
2021/07/04 03:09:42;;;;;;;9.82;6.05;;;;;;;16.33;74.20;99285.50;4885213;29;20132;-70
2021/07/04 03:12:16;;;;;;;10.77;5.53;;;;;;;16.28;74.22;99287.34;4896716;29;20079;-70
2021/07/04 03:14:46;;;;;;;8.57;5.50;;;;;;;16.34;74.25;99294.91;4895871;29;20041;-70
2021/07/04 03:17:16;;;;;;;9.57;5.93;;;;;;;16.53;74.46;99298.66;4894928;29;20056;-70
2021/07/04 03:19:46;;;;;;;8.98;5.35;;;;;;;16.55;73.90;99296.88;4893008;29;20044;-70
2021/07/04 03:22:19;;;;;;;9.30;5.70;;;;;;;16.60;73.68;99305.28;4884708;29;20100;-71
2021/07/04 03:24:48;;;;;;;7.05;5.28;;;;;;;16.52;73.62;99300.38;4896647;29;20051;-70
2021/07/04 03:27:20;;;;;;;7.72;5.20;;;;;;;16.35;73.51;99299.16;4896625;29;20108;-70
2021/07/04 03:29:54;;;;;;;8.75;5.40;;;;;;;16.19;74.42;99297.94;4895798;29;20092;-71
2021/07/04 03:32:24;;;;;;;8.90;5.60;;;;;;;16.13;74.82;99292.94;4894004;29;20063;-70
2021/07/04 03:34:55;;;;;;;10.15;4.97;;;;;;;16.37;74.80;99294.81;4886677;29;20048;-70
2021/07/04 03:37:24;;;;;;;8.10;5.35;;;;;;;16.55;73.97;99291.72;4896498;29;20076;-70
2021/07/04 03:39:55;;;;;;;8.90;5.47;;;;;;;16.65;73.33;99300.84;4895228;29;20075;-70
2021/07/04 03:42:26;;;;;;;7.85;5.40;;;;;;;16.72;73.30;99304.91;4898287;29;20119;-70
2021/07/04 03:44:56;;;;;;;8.77;5.15;;;;;;;16.71;73.36;99300.63;4897918;29;20048;-70
2021/07/04 03:47:26;;;;;;;7.72;4.63;;;;;;;16.82;72.80;99314.00;4896763;29;20048;-69
2021/07/04 03:49:56;;;;;;;8.13;5.22;;;;;;;16.83;72.22;99313.13;4895235;29;20048;-70
2021/07/04 03:52:31;;;;;;;6.82;4.70;;;;;;;16.83;71.94;99310.56;4893218;29;20045;-72
2021/07/04 03:55:00;;;;;;;;;;;;;;;16.81;71.98;99314.94;4893598;29;20045;-70
2021/07/04 03:57:33;;;;;;;8.15;5.38;;;;;;;16.85;71.60;99310.50;4897461;29;19978;-70
2021/07/04 04:00:11;;;;;;;7.53;5.13;;;;;;;16.85;71.48;99311.34;4894636;29;20041;-69
2021/07/04 04:02:53;;;;;;;9.25;5.30;;;;;;;16.97;71.71;99308.38;4895802;29;20060;-70
2021/07/04 04:05:33;;;;;;;7.97;4.88;;;;;;;16.99;71.37;99311.75;4894718;29;20049;-70
2021/07/04 04:08:07;;;;;;;10.88;5.82;;;;;;;17.00;71.19;99310.00;4881375;29;20057;-70
2021/07/04 04:10:39;;;;;;;9.63;5.53;;;;;;;17.11;71.16;99298.44;4896132;29;20100;-70
2021/07/04 04:13:17;;;;;;;7.05;5.00;;;;;;;17.20;70.89;99298.13;4886541;29;20094;-70
2021/07/04 04:15:48;;;;;;;9.27;4.97;;;;;;;17.28;70.70;99306.47;4888190;29;20479;-70
2021/07/04 04:18:19;;;;;;;8.18;5.47;;;;;;;17.38;70.11;99302.69;4894039;29;20511;-69
2021/07/04 04:20:50;;;;;;;7.65;5.22;;;;;;;17.44;70.11;99292.13;4895454;29;20414;-70
2021/07/04 04:23:19;;;;;;;9.13;4.70;;;;;;;17.50;69.72;99285.94;4894254;29;20079;-72
2021/07/04 04:25:48;;;;;;;;;;;;;;;17.65;69.47;99284.59;4893235;29;20089;-70
2021/07/04 04:28:19;;;;;;;8.77;5.53;;;;;;;17.79;69.27;99282.34;4895933;29;19923;-70
2021/07/04 04:30:51;;;;;;;7.68;5.05;;;;;;;17.92;69.22;99293.94;4900253;29;20044;-70
2021/07/04 04:33:21;;;;;;;8.38;4.90;;;;;;;18.03;69.27;99291.78;4888071;29;20045;-71
2021/07/04 04:35:51;;;;;;;7.85;4.68;;;;;;;18.27;68.90;99296.03;4899806;29;20040;-69
2021/07/04 04:38:20;;;;;;;8.73;5.15;;;;;;;18.43;68.46;99291.94;4900560;29;20049;-70
2021/07/04 04:40:49;;;;;;;8.02;5.05;;;;;;;18.65;68.04;99292.84;4898527;29;20128;-71
2021/07/04 04:43:20;;;;;;;7.20;4.53;;;;;;;18.76;67.06;99301.91;4901465;29;20121;-70
2021/07/04 04:45:48;;;;;;;9.07;4.70;;;;;;;18.90;67.21;99303.03;4899389;29;20053;-70
2021/07/04 04:48:17;;;;;;;7.27;4.77;;;;;;;19.17;66.47;99301.88;4900510;29;20067;-70
2021/07/04 04:50:48;;;;;;;8.60;4.88;;;;;;;19.25;65.48;99299.84;4899360;29;20326;-70
2021/07/04 04:53:16;;;;;;;8.20;4.97;;;;;;;19.29;65.04;99305.75;4899387;29;20040;-71
2021/07/04 04:55:45;;;;;;;7.18;4.93;;;;;;;19.42;64.58;99299.16;4896762;29;20060;-70
2021/07/04 04:58:15;;;;;;;7.72;5.15;;;;;;;19.52;64.53;99292.69;4899818;29;20071;-70
2021/07/04 05:00:45;;;;;;;7.20;4.78;;;;;;;19.56;64.13;99296.81;4894352;29;20567;-70
2021/07/04 05:03:14;;;;;;;6.93;4.93;;;;;;;19.71;63.81;99297.88;4900291;29;20080;-70
2021/07/04 05:05:43;;;;;;;8.40;5.00;;;;;;;19.89;63.33;99297.91;4897070;29;20080;-71
2021/07/04 05:08:12;;;;;;;8.18;4.65;;;;;;;20.08;63.03;99297.09;4900031;29;20037;-71
2021/07/04 05:10:41;;;;;;;7.50;5.03;;;;;;;20.11;62.29;99302.97;4888663;29;20112;-70
2021/07/04 05:13:10;;;;;;;8.15;4.70;;;;;;;20.06;61.96;99294.56;4898266;29;20049;-70
2021/07/04 05:15:38;;;;;;;7.22;4.85;;;;;;;20.14;61.87;99294.22;4899214;29;20112;-70
2021/07/04 05:18:09;;;;;;;;;;;;;;;20.27;61.46;99296.22;4898500;29;20055;-70
2021/07/04 05:20:39;;;;;;;7.00;4.47;;;;;;;20.41;61.33;99300.75;4896560;29;19923;-70
2021/07/04 05:23:08;;;;;;;7.13;4.63;;;;;;;20.53;61.10;99295.00;4895184;29;20410;-72
2021/07/04 05:25:37;;;;;;;8.43;4.90;;;;;;;20.54;60.84;99296.66;4896686;29;20108;-70
2021/07/04 05:28:06;;;;;;;8.10;4.70;;;;;;;20.63;60.94;99301.44;4898902;29;20049;-71
2021/07/04 05:30:35;;;;;;;7.88;4.80;;;;;;;20.76;60.72;99297.31;4898756;29;20556;-70
2021/07/04 05:33:04;;;;;;;6.60;4.75;;;;;;;20.90;60.41;99299.28;4898556;29;20088;-69
2021/07/04 05:35:35;;;;;;;6.45;4.65;;;;;;;21.04;60.02;99297.66;4897191;29;20395;-70
2021/07/04 05:38:04;;;;;;;8.45;5.20;;;;;;;21.24;59.88;99296.69;4898713;29;20048;-71
2021/07/04 05:40:33;;;;;;;8.75;5.30;;;;;;;21.40;59.77;99283.81;4900796;29;20119;-69
2021/07/04 05:43:02;;;;;;;7.70;4.85;;;;;;;21.46;59.70;99286.06;4896447;29;20041;-70
2021/07/04 05:45:31;;;;;;;7.67;4.73;;;;;;;21.63;59.10;99283.44;4890741;29;20113;-69
2021/07/04 05:48:06;;;;;;;8.05;5.03;;;;;;;21.76;58.71;99289.69;4898113;29;20303;-70
2021/07/04 05:50:36;;;;;;;;;;;;;;;21.94;58.15;99291.34;4898229;29;20470;-69
2021/07/04 05:53:05;;;;;;;6.95;4.63;;;;;;;22.08;57.41;99293.19;4899395;29;19923;-70
2021/07/04 05:55:34;;;;;;;7.80;5.15;;;;;;;22.16;57.15;99291.88;4896469;29;20053;-70
2021/07/04 05:58:03;;;;;;;7.28;4.85;;;;;;;22.31;56.80;99290.22;4901164;29;20051;-69
2021/07/04 06:00:32;;;;;;;8.10;4.70;;;;;;;22.42;56.64;99288.69;4898871;29;20037;-70
2021/07/04 06:03:00;;;;;;;6.68;4.30;;;;;;;22.54;56.04;99290.63;4899170;29;20052;-69
2021/07/04 06:05:29;;;;;;;7.27;4.60;;;;;;;22.70;55.49;99289.81;4899155;29;20447;-69
2021/07/04 06:08:00;;;;;;;7.72;4.53;;;;;;;22.81;54.83;99290.03;4898075;29;20304;-70
2021/07/04 06:10:29;;;;;;;7.55;4.38;;;;;;;22.88;54.85;99296.56;4896414;29;20076;-68
2021/07/04 06:12:58;;;;;;;6.72;4.25;;;;;;;22.93;54.62;99289.31;4900481;29;20052;-68
2021/07/04 06:15:27;;;;;;;8.98;4.75;;;;;;;23.18;53.77;99279.16;4902939;29;20040;-68
2021/07/04 06:17:56;;;;;;;5.80;4.03;;;;;;;23.43;53.33;99279.44;4901632;29;20115;-68
2021/07/04 06:20:25;;;;;;;6.45;4.57;;;;;;;23.50;52.67;99283.34;4897984;29;20131;-69
2021/07/04 06:22:55;;;;;;;8.88;4.43;;;;;;;23.42;52.40;99282.94;4899098;29;20431;-69
2021/07/04 06:25:25;;;;;;;;;;;;;;;23.42;52.43;99276.94;4894384;29;20534;-70
2021/07/04 06:27:54;;;;;;;8.05;4.35;;;;;;;23.50;52.26;99285.09;4899054;29;19931;-69
2021/07/04 06:30:23;;;;;;;7.53;4.10;;;;;;;23.54;52.81;99282.22;4899972;29;20132;-69
2021/07/04 06:32:52;;;;;;;7.28;4.20;;;;;;;23.67;52.07;99285.78;4898709;29;20052;-70
2021/07/04 06:35:21;;;;;;;6.40;4.30;;;;;;;23.55;51.44;99283.91;4898717;29;20052;-69
2021/07/04 06:37:50;;;;;;;7.50;4.22;;;;;;;23.40;51.43;99295.25;4894379;29;20037;-70
2021/07/04 06:40:19;;;;;;;7.07;4.22;;;;;;;23.36;52.00;99291.16;4896256;29;20116;-69
2021/07/04 06:42:50;;;;;;;9.70;4.63;;;;;;;23.24;52.42;99294.44;4898170;29;20037;-70
2021/07/04 06:45:23;;;;;;;7.65;4.53;;;;;;;23.30;52.12;99294.91;4889015;29;20060;-68
2021/07/04 06:47:52;;;;;;;6.47;4.20;;;;;;;23.49;51.99;99284.25;4886407;29;20463;-68
2021/07/04 06:50:21;;;;;;;8.32;4.38;;;;;;;23.66;51.63;99281.47;4899475;29;20407;-69
2021/07/04 06:52:50;;;;;;;;;;;;;;;23.48;51.19;99287.81;4899974;29;20495;-67
2021/07/04 06:55:20;;;;;;;6.10;4.13;;;;;;;23.39;51.42;99285.75;4895879;29;19923;-69
2021/07/04 06:57:50;;;;;;;6.22;4.38;;;;;;;23.36;51.63;99280.72;4896889;29;20044;-70
2021/07/04 07:00:20;;;;;;;7.78;4.70;;;;;;;23.29;52.00;99281.97;4895516;29;20369;-70
2021/07/04 07:02:49;;;;;;;;;;;;;;;23.34;51.72;99285.16;4895348;29;20132;-68
2021/07/04 07:05:19;;;;;;;5.85;4.07;;;;;;;23.50;51.51;99285.94;4898038;29;19931;-69
2021/07/04 07:07:48;;;;;;;6.65;4.60;;;;;;;23.69;51.11;99276.09;4899140;29;20056;-69
2021/07/04 07:10:18;;;;;;;6.38;4.10;;;;;;;23.77;50.97;99278.25;4896882;29;20131;-69
2021/07/04 07:12:51;;;;;;;6.45;4.57;;;;;;;24.11;50.74;99277.03;4898329;29;20057;-68
2021/07/04 07:15:26;;;;;;;7.65;4.85;;;;;;;24.42;49.83;99271.56;4898238;29;20148;-68
2021/07/04 07:17:55;;;;;;;6.65;4.45;;;;;;;24.64;49.63;99277.91;4899006;29;20082;-68
2021/07/04 07:20:24;;;;;;;6.82;4.75;;;;;;;24.85;49.06;99265.28;4895733;29;20163;-68
2021/07/04 07:22:54;;;;;;;9.63;4.90;;;;;;;25.04;48.80;99264.88;4896045;29;20503;-70
2021/07/04 07:25:32;;;;;;;7.13;4.65;;;;;;;25.10;48.12;99260.09;4895751;29;20068;-69
2021/07/04 07:28:03;;;;;;;7.45;5.03;;;;;;;25.29;48.25;99255.31;4889708;29;20044;-70
2021/07/04 07:30:38;;;;;;;6.90;4.85;;;;;;;25.47;47.97;99262.88;4887199;29;20048;-71
2021/07/04 07:33:09;;;;;;;6.88;4.70;;;;;;;25.46;48.22;99261.22;4894629;29;20044;-69
2021/07/04 07:35:39;;;;;;;7.85;4.60;;;;;;;25.59;47.84;99256.81;4897451;29;20096;-69
2021/07/04 07:38:09;;;;;;;6.95;4.70;;;;;;;25.68;47.23;99256.16;4897758;29;20083;-71
2021/07/04 07:40:38;;;;;;;7.05;4.82;;;;;;;25.92;47.05;99257.06;4894593;29;20052;-69
2021/07/04 07:43:09;;;;;;;7.53;4.63;;;;;;;26.18;46.85;99255.28;4898827;29;20075;-69
2021/07/04 07:45:40;;;;;;;8.30;5.40;;;;;;;26.18;46.79;99250.84;4895003;29;20108;-69
2021/07/04 07:48:12;;;;;;;6.63;4.43;;;;;;;26.48;45.97;99247.81;4894354;29;20055;-69
2021/07/04 07:50:56;;;;;;;8.32;4.90;;;;;;;26.63;45.25;99248.50;4897403;29;20060;-69
2021/07/04 07:53:25;;;;;;;7.60;5.00;;;;;;;26.29;45.76;99240.47;4896290;29;20049;-69
2021/07/04 07:55:54;;;;;;;8.57;5.20;;;;;;;26.48;45.58;99242.59;4896890;29;20032;-68
2021/07/04 07:58:27;;;;;;;7.25;4.75;;;;;;;26.60;45.11;99232.06;4896250;29;20471;-69
2021/07/04 08:00:59;;;;;;;6.93;4.93;;;;;;;26.92;44.78;99231.50;4892449;29;20049;-68
2021/07/04 08:03:28;;;;;;;7.25;4.90;;;;;;;27.11;44.09;99234.41;4895314;29;20064;-69
2021/07/04 08:05:57;;;;;;;6.40;4.70;;;;;;;27.32;42.97;99234.53;4895818;29;20065;-68
2021/07/04 08:08:26;;;;;;;8.05;5.30;;;;;;;27.37;42.15;99232.41;4896290;29;20403;-69
2021/07/04 08:10:55;;;;;;;8.88;5.28;;;;;;;27.60;42.52;99223.63;4896218;29;20510;-68
2021/07/04 08:13:24;;;;;;;9.73;5.20;;;;;;;27.63;42.07;99228.66;4898439;29;20471;-69
2021/07/04 08:15:56;;;;;;;7.38;4.88;;;;;;;27.03;42.92;99215.78;4897527;29;20135;-69
2021/07/04 08:18:26;;;;;;;6.72;4.80;;;;;;;26.98;43.89;99217.91;4897331;29;20059;-70
2021/07/04 08:20:55;;;;;;;7.55;4.97;;;;;;;27.28;43.33;99215.63;4895960;29;20076;-68
2021/07/04 08:23:24;;;;;;;;;;;;;;;27.44;42.28;99218.75;4896208;29;20044;-69
2021/07/04 08:25:53;;;;;;;10.38;5.13;;;;;;;27.42;41.92;99212.78;4880647;29;19959;-70
2021/07/04 08:28:22;;;;;;;6.85;4.78;;;;;;;27.71;42.15;99216.63;4896537;29;20088;-69
2021/07/04 08:30:50;;;;;;;5.97;4.40;;;;;;;27.96;42.34;99209.41;4894187;29;20053;-68
2021/07/04 08:33:21;;;;;;;7.63;5.07;;;;;;;28.26;41.34;99213.09;4893612;29;20044;-68
2021/07/04 08:35:50;;;;;;;6.30;4.25;;;;;;;28.21;40.11;99209.16;4896400;29;20410;-68
2021/07/04 08:38:19;;;;;;;7.25;4.60;;;;;;;28.20;40.27;99212.72;4896339;29;20521;-69
2021/07/04 08:40:48;;;;;;;6.82;4.45;;;;;;;28.30;40.86;99208.41;4898460;29;20083;-68
2021/07/04 08:43:26;;;;;;;7.15;4.47;;;;;;;28.46;41.18;99208.81;4894894;29;20048;-69
2021/07/04 08:45:55;;;;;;;9.35;4.45;;;;;;;28.37;40.98;99204.31;4898470;29;20040;-69
2021/07/04 08:48:25;;;;;;;5.78;4.10;;;;;;;28.34;40.70;99204.56;4895577;29;20504;-69
2021/07/04 08:50:55;;;;;;;5.57;4.10;;;;;;;28.13;40.60;99203.69;4879387;29;20053;-69
2021/07/04 08:53:24;;;;;;;7.63;3.75;;;;;;;27.47;40.36;99192.31;4886029;29;20052;-69
2021/07/04 08:55:53;;;;;;;7.93;4.38;;;;;;;26.93;41.22;99186.84;4897141;29;20041;-68
2021/07/04 08:58:26;;;;;;;6.35;4.30;;;;;;;26.93;41.11;99186.00;4898420;29;20049;-71
2021/07/04 09:01:14;;;;;;;6.70;4.10;;;;;;;27.47;40.59;99191.47;4879427;29;20049;-68
2021/07/04 09:03:47;;;;;;;5.63;4.13;;;;;;;27.95;40.56;99186.75;4882700;29;20074;-68
2021/07/04 09:06:36;;;;;;;8.20;4.15;;;;;;;28.73;40.74;99185.59;4876769;29;20056;-68
2021/07/04 09:09:16;;;;;;;5.50;4.28;;;;;;;29.08;39.78;99180.00;4876368;29;20515;-69
2021/07/04 09:11:56;;;;;;;5.38;3.80;;;;;;;28.68;39.28;99171.16;4877507;29;20496;-68
2021/07/04 09:14:34;;;;;;;7.70;3.83;;;;;;;28.77;39.56;99181.72;4879688;29;20040;-68
2021/07/04 09:17:34;;;;;;;4.97;3.70;;;;;;;28.45;39.38;99180.91;4879061;29;20502;-69
2021/07/04 09:20:07;;;;;;;6.63;3.92;;;;;;;28.07;40.34;99185.81;4880328;29;20053;-68
2021/07/04 09:22:40;;;;;;;6.18;3.92;;;;;;;27.55;41.05;99187.28;4877363;29;20057;-70
2021/07/04 09:25:12;;;;;;;6.72;4.22;;;;;;;27.15;42.74;99183.41;4880302;29;20063;-69
2021/07/04 09:27:43;;;;;;;6.07;4.22;;;;;;;26.82;43.94;99184.19;4881287;29;20053;-69
2021/07/04 09:30:16;;;;;;;6.30;4.47;;;;;;;26.57;43.74;99190.38;4896548;29;20056;-68
2021/07/04 09:32:49;;;;;;;6.85;4.50;;;;;;;26.47;43.64;99180.69;4881515;29;20135;-68
2021/07/04 09:35:21;;;;;;;6.10;4.07;;;;;;;26.31;43.55;99186.22;4881399;29;20044;-68
2021/07/04 09:37:52;;;;;;;7.32;4.47;;;;;;;26.13;44.04;99179.69;4881627;29;20053;-69
2021/07/04 09:40:23;;;;;;;6.22;4.03;;;;;;;26.09;44.05;99188.69;4878902;29;20108;-68
2021/07/04 09:43:16;;;;;;;6.32;4.18;;;;;;;26.01;45.05;99180.56;4882148;29;20053;-68
2021/07/04 09:45:51;;;;;;;5.47;4.18;;;;;;;25.87;45.51;99183.31;4880315;29;20136;-69
2021/07/04 09:48:23;;;;;;;6.40;4.30;;;;;;;25.81;45.21;99168.94;4874129;29;20403;-69
2021/07/04 09:50:55;;;;;;;5.82;3.85;;;;;;;25.83;45.71;99171.41;4881149;29;20049;-69
2021/07/04 09:53:32;;;;;;;7.55;4.55;;;;;;;25.83;45.93;99167.03;4879787;29;20049;-69
2021/07/04 09:56:09;;;;;;;7.15;4.43;;;;;;;25.97;44.99;99171.25;4880883;29;20037;-69
2021/07/04 09:58:39;;;;;;;6.13;4.25;;;;;;;26.08;44.34;99163.50;4880634;29;20049;-69
2021/07/04 10:01:08;;;;;;;5.95;4.25;;;;;;;26.15;45.01;99159.53;4880943;29;20558;-69
2021/07/04 10:03:42;;;;;;;5.57;4.05;;;;;;;26.13;45.06;99157.97;4880511;29;20081;-68
2021/07/04 10:06:12;;;;;;;5.95;4.35;;;;;;;26.17;44.92;99152.38;4881791;29;20389;-69
2021/07/04 10:08:42;;;;;;;6.60;4.15;;;;;;;26.28;45.21;99160.28;4879893;29;20053;-69
2021/07/04 10:11:12;;;;;;;5.25;4.00;;;;;;;26.34;44.88;99152.00;4881056;29;20053;-69
2021/07/04 10:13:43;;;;;;;6.30;4.13;;;;;;;26.34;44.84;99152.00;4863102;29;20046;-68
2021/07/04 10:16:14;;;;;;;6.50;4.07;;;;;;;26.45;43.68;99144.16;4862105;29;20049;-69
2021/07/04 10:18:46;;;;;;;6.35;4.72;;;;;;;26.58;43.14;99150.19;4865357;29;20106;-68
2021/07/04 10:21:20;;;;;;;5.13;3.60;;;;;;;26.52;44.06;99145.38;4881181;29;20061;-68
2021/07/04 10:23:51;;;;;;;5.78;4.20;;;;;;;26.44;43.55;99139.88;4879384;29;20049;-69
2021/07/04 10:26:20;;;;;;;7.53;4.15;;;;;;;26.63;44.00;99130.66;4878575;29;20093;-69
2021/07/04 10:28:50;;;;;;;6.25;4.47;;;;;;;26.79;44.40;99141.69;4873427;29;20464;-69
2021/07/04 10:31:20;;;;;;;6.28;4.10;;;;;;;27.01;43.75;99136.47;4873058;29;20053;-67
2021/07/04 10:34:07;;;;;;;7.55;4.43;;;;;;;27.18;43.25;99134.25;4878001;29;20487;-68
2021/07/04 10:36:56;;;;;;;5.80;3.95;;;;;;;27.85;41.80;99135.03;4879828;29;20060;-69
2021/07/04 10:39:25;;;;;;;;;;;;;;;27.96;41.61;99128.06;4880964;29;20045;-69
2021/07/04 10:41:56;;;;;;;6.35;4.00;;;;;;;28.20;40.50;99128.72;4880148;29;19946;-70
2021/07/04 10:44:43;;;;;;;6.22;3.75;;;;;;;28.77;39.27;99121.28;4881322;29;20377;-69
2021/07/04 10:47:14;;;;;;;6.15;4.00;;;;;;;29.05;38.26;99118.00;4880867;29;20399;-69
2021/07/04 10:49:46;;;;;;;6.03;3.90;;;;;;;29.46;38.02;99113.63;4879889;29;20052;-69
2021/07/04 10:52:23;;;;;;;5.70;3.90;;;;;;;29.37;37.85;99106.56;4880856;29;20088;-68
2021/07/04 10:54:55;;;;;;;7.70;3.97;;;;;;;29.58;37.07;99104.66;4879115;29;20161;-69
2021/07/04 10:57:31;;;;;;;5.47;3.72;;;;;;;30.13;37.11;99106.72;4879707;29;20092;-69
2021/07/04 11:00:26;;;;;;;6.25;3.72;;;;;;;30.52;36.46;99103.09;4880102;29;20120;-69
2021/07/04 11:02:57;;;;;;;4.38;3.40;;;;;;;30.43;36.08;99103.09;4880571;29;20064;-69
2021/07/04 11:05:48;;;;;;;5.25;3.88;;;;;;;30.29;35.75;99096.44;4881060;29;20377;-69
2021/07/04 11:08:20;;;;;;;5.30;3.80;;;;;;;30.11;35.60;99095.50;4879257;29;20636;-69
2021/07/04 11:11:01;;;;;;;5.28;3.72;;;;;;;30.40;36.35;99088.41;4880605;29;20493;-69
2021/07/04 11:13:49;;;;;;;5.55;3.80;;;;;;;30.27;36.02;99092.28;4880620;29;20060;-69
2021/07/04 11:16:26;;;;;;;4.47;2.92;;;;;;;30.09;34.47;99097.41;4880817;29;20068;-67
2021/07/04 11:19:09;;;;;;;5.10;3.40;;;;;;;29.82;34.08;99087.59;4874070;29;20054;-70
2021/07/04 11:21:51;;;;;;;4.40;3.10;;;;;;;29.89;34.99;99087.84;4874978;29;20400;-69
2021/07/04 11:24:23;;;;;;;4.63;3.40;;;;;;;30.24;34.27;99089.94;4870891;29;20041;-68
2021/07/04 11:27:14;;;;;;;5.57;3.80;;;;;;;30.05;34.72;99082.88;4876754;29;20456;-69
2021/07/04 11:30:09;;;;;;;5.45;3.63;;;;;;;30.28;35.59;99081.59;4873073;29;20109;-68
2021/07/04 11:32:39;;;;;;;4.97;3.53;;;;;;;29.93;35.20;99056.81;4879790;29;20045;-69
2021/07/04 11:35:08;;;;;;;5.18;3.53;;;;;;;30.13;35.62;99069.00;4875473;29;20049;-67
2021/07/04 11:37:41;;;;;;;5.95;3.38;;;;;;;30.30;36.07;99071.78;4878845;29;20056;-68
2021/07/04 11:40:13;;;;;;;5.68;3.95;;;;;;;30.21;34.99;99071.78;4879473;29;20057;-69
2021/07/04 11:42:42;;;;;;;5.40;3.33;;;;;;;30.40;35.22;99062.06;4877597;29;20057;-69
2021/07/04 11:45:21;;;;;;;4.85;3.53;;;;;;;30.65;34.48;99070.34;4878466;29;20073;-69
2021/07/04 11:48:05;;;;;;;4.97;3.30;;;;;;;30.93;34.57;99064.19;4879030;29;20210;-68
2021/07/04 11:50:46;;;;;;;4.40;3.10;;;;;;;30.86;32.91;99055.16;4879925;29;20097;-69
2021/07/04 11:53:15;;;;;;;4.93;3.40;;;;;;;30.54;32.79;99046.81;4861373;29;20041;-68
2021/07/04 11:56:04;;;;;;;7.35;3.45;;;;;;;30.09;33.06;99047.38;4861544;29;20050;-68
2021/07/04 11:58:35;;;;;;;4.85;3.25;;;;;;;30.20;33.40;99039.34;4873566;29;20045;-68
2021/07/04 12:01:05;;;;;;;4.95;3.08;;;;;;;30.47;32.74;99017.56;4878434;29;20117;-68